CheckWX is a tool to help pilots better visualize weather data.  It is not intended as a substitute for an official pre-flight weather briefing.

03:18:58 UTC

DNMN METAR
Minna Airport
Minna, Nigeria
Current

2 hours ago

DNMN 210100Z 04022KT 8000 NSC 28/08 Q1010
Observed
Feb-21 @ 01:00 UTC
Wind
  • 040° at 22 KTS
Visibility
8,000 meters
Flight Rules
MVFR
Cloud Levels
  • Clear skies
Temperature
28°C / 82°F
Dewpoint
C / 46°F
Humidity
28%
Altimeter
29.82" Hg
Pressure
1009.92 hPa
Previous

3 hours ago

DNMN 210000Z 06021KT 8000 NSC 28/12 Q1011
Observed
Feb-21 @ 00:00 UTC
Wind
  • 060° at 21 KTS
Visibility
8,000 meters
Flight Rules
MVFR
Cloud Levels
  • Clear skies
Temperature
28°C / 82°F
Dewpoint
12°C / 54°F
Humidity
37%
Altimeter
29.85" Hg
Pressure
1010.92 hPa
Previous

7 hours ago

DNMN 202000Z 04020KT 8000 NSC 32/14 Q1009
Observed
Feb-20 @ 20:00 UTC
Wind
  • 040° at 20 KTS
Visibility
8,000 meters
Flight Rules
MVFR
Cloud Levels
  • Clear skies
Temperature
32°C / 90°F
Dewpoint
14°C / 57°F
Humidity
33%
Altimeter
29.79" Hg
Pressure
1008.92 hPa